Time;durP1;ratioP1;P1;durP2;ratioP2;P2;SDS_P1;SDS_P2;PMS_P1;PMS_P2;Temp;Humidity;BMP_temperature;BMP_pressure;BME280_temperature;BME280_humidity;BME280_pressure;Samples;Min_cycle;Max_cycle;Signal;HPM_P1;HPM_P2
2023/05/24 00:02:25;;;;;;;23.13;11.77;;;;;;;15.61;100.00;94252.19;5097590;28;20345;-80
2023/05/24 00:07:54;;;;;;;16.02;10.25;;;;;;;15.45;100.00;94254.44;5098003;28;20336;-80
2023/05/24 00:10:19;;;;;;;16.00;10.02;;;;;;;15.29;100.00;94251.38;5096252;28;20024;-80
2023/05/24 00:12:44;;;;;;;18.42;9.80;;;;;;;15.41;100.00;94251.63;5096479;28;20028;-80
2023/05/24 00:15:10;;;;;;;16.38;9.70;;;;;;;15.75;100.00;94254.00;5096586;28;20111;-80
2023/05/24 00:17:40;;;;;;;14.98;8.70;;;;;;;16.00;100.00;94254.47;5096590;28;20031;-80
2023/05/24 00:20:24;;;;;;;19.95;8.40;;;;;;;16.40;100.00;94251.81;5096534;28;20081;-80
2023/05/24 00:22:50;;;;;;;14.10;7.47;;;;;;;16.47;100.00;94257.41;5097577;28;20108;-80
2023/05/24 00:25:16;;;;;;;13.77;8.10;;;;;;;16.37;100.00;94253.19;5071149;28;20048;-80
2023/05/24 00:28:00;;;;;;;13.00;8.30;;;;;;;16.47;100.00;94261.94;5081670;28;20036;-80
2023/05/24 00:30:25;;;;;;;13.70;7.90;;;;;;;16.39;100.00;94252.91;5092047;28;20115;-80
2023/05/24 00:32:51;;;;;;;14.50;7.90;;;;;;;16.34;100.00;94253.81;5079656;28;20429;-80
2023/05/24 00:35:16;;;;;;;20.45;7.65;;;;;;;16.25;100.00;94258.28;5097440;28;20032;-80
2023/05/24 00:37:44;;;;;;;12.23;7.30;;;;;;;16.45;100.00;94262.25;5095908;28;20421;-80
2023/05/24 00:40:10;;;;;;;24.23;8.20;;;;;;;16.42;100.00;94262.06;5097275;28;20024;-80
2023/05/24 00:42:35;;;;;;;14.50;8.18;;;;;;;16.41;100.00;94256.00;5087610;28;20032;-80
2023/05/24 00:48:04;;;;;;;10.95;7.53;;;;;;;16.55;100.00;94261.16;5097075;28;20117;-80
2023/05/24 00:50:29;;;;;;;17.15;8.38;;;;;;;16.22;100.00;94259.69;5087686;28;20036;-80
2023/05/24 00:52:55;;;;;;;10.70;7.40;;;;;;;16.44;100.00;94254.63;5075694;28;20047;-80
2023/05/24 00:55:20;;;;;;;16.75;7.47;;;;;;;16.35;100.00;94257.22;5075588;28;20032;-80
2023/05/24 00:57:46;;;;;;;13.38;8.50;;;;;;;16.05;100.00;94252.47;5076833;28;20032;-80
2023/05/24 01:00:12;;;;;;;16.23;7.88;;;;;;;16.14;100.00;94252.50;5076724;28;20032;-80
2023/05/24 01:02:37;;;;;;;12.15;8.02;;;;;;;16.22;100.00;94249.13;5075201;28;20028;-80
2023/05/24 01:05:04;;;;;;;22.02;8.13;;;;;;;16.27;100.00;94242.13;5075369;28;20035;-80
2023/05/24 01:07:30;;;;;;;14.23;8.07;;;;;;;16.19;100.00;94248.94;5075527;28;20028;-80
2023/05/24 01:10:20;;;;;;;10.88;7.82;;;;;;;16.32;100.00;94247.25;5076714;28;20035;-80
2023/05/24 01:16:20;;;;;;;13.18;7.80;;;;;;;16.08;100.00;94233.34;5076656;28;20158;-80
2023/05/24 01:18:57;;;;;;;11.02;7.75;;;;;;;16.25;100.00;94245.06;5059091;28;20421;-80
2023/05/24 01:25:08;;;;;;;16.33;8.38;;;;;;;15.85;100.00;94240.53;5075679;28;20063;-80
2023/05/24 01:27:35;;;;;;;13.73;7.75;;;;;;;15.73;100.00;94235.81;5076495;28;20032;-80
2023/05/24 01:30:03;;;;;;;12.93;8.68;;;;;;;15.67;100.00;94240.44;5092085;28;20032;-80
2023/05/24 01:32:28;;;;;;;14.80;8.60;;;;;;;15.36;100.00;94238.56;5074956;28;20033;-80
2023/05/24 01:34:54;;;;;;;16.90;8.82;;;;;;;15.33;100.00;94241.75;5075187;28;20086;-80
2023/05/24 01:37:19;;;;;;;13.30;8.50;;;;;;;15.47;100.00;94243.56;5075264;28;20024;-80
2023/05/24 01:39:45;;;;;;;16.40;8.77;;;;;;;15.13;100.00;94235.09;5075182;28;20040;-80
2023/05/24 01:42:38;;;;;;;12.50;8.73;;;;;;;15.31;100.00;94237.88;5059652;28;20390;-80
2023/05/24 01:45:33;;;;;;;15.88;9.23;;;;;;;15.09;100.00;94245.50;5080432;28;20029;-80
2023/05/24 01:48:25;;;;;;;20.45;9.20;;;;;;;15.21;100.00;94241.53;5079205;28;20180;-80
2023/05/24 01:51:10;;;;;;;19.23;9.20;;;;;;;15.28;100.00;94247.19;5078680;28;20036;-80
2023/05/24 01:53:41;;;;;;;17.40;9.27;;;;;;;15.20;100.00;94251.31;5079011;28;20031;-80
2023/05/24 01:58:52;;;;;;;16.08;8.65;;;;;;;15.11;100.00;94253.09;5079165;28;20035;-80
2023/05/24 02:01:18;;;;;;;18.20;8.77;;;;;;;15.21;100.00;94258.16;5095264;28;20034;-80
2023/05/24 02:03:43;;;;;;;17.02;9.07;;;;;;;15.20;100.00;94261.06;5082730;28;20041;-80
2023/05/24 02:06:27;;;;;;;14.75;8.77;;;;;;;15.15;100.00;94256.72;5078796;28;20032;-80
2023/05/24 02:08:53;;;;;;;17.20;7.93;;;;;;;15.44;100.00;94257.38;5079981;28;20035;-80
2023/05/24 02:19:30;;;;;;;13.55;8.10;;;;;;;15.45;100.00;94248.38;5078753;28;20063;-80
2023/05/24 02:21:56;;;;;;;20.88;7.78;;;;;;;15.49;100.00;94246.69;5079115;28;20414;-80
2023/05/24 02:27:24;;;;;;;14.57;7.70;;;;;;;15.49;100.00;94244.84;5078688;28;20456;-80
2023/05/24 02:35:37;;;;;;;15.70;8.00;;;;;;;15.43;100.00;94235.50;5078502;28;20030;-80
2023/05/24 02:38:22;;;;;;;12.40;7.20;;;;;;;15.52;100.00;94230.25;5078242;28;20123;-80
2023/05/24 02:40:47;;;;;;;18.90;7.97;;;;;;;15.36;100.00;94228.00;5078941;28;20028;-80
2023/05/24 02:43:13;;;;;;;19.48;9.07;;;;;;;15.04;100.00;94232.41;5079298;28;20334;-80
2023/05/24 02:45:57;;;;;;;12.00;8.38;;;;;;;15.23;100.00;94232.22;5078133;28;20032;-80
2023/05/24 02:48:23;;;;;;;12.73;7.78;;;;;;;15.04;100.00;94239.53;5078314;28;20032;-80
2023/05/24 02:51:07;;;;;;;16.77;8.75;;;;;;;14.92;100.00;94242.69;5078800;28;20021;-80
2023/05/24 02:53:32;;;;;;;13.13;8.13;;;;;;;14.90;100.00;94235.09;5078617;28;20482;-80
2023/05/24 02:55:58;;;;;;;17.75;8.82;;;;;;;14.77;100.00;94236.66;5077896;28;20024;-80
2023/05/24 02:58:43;;;;;;;19.65;8.00;;;;;;;14.80;100.00;94244.00;5090001;28;20055;-80
2023/05/24 03:01:12;;;;;;;14.80;8.00;;;;;;;14.94;100.00;94237.91;5090034;28;20032;-80
2023/05/24 03:03:38;;;;;;;11.88;8.80;;;;;;;14.28;100.00;94229.19;5082913;28;20437;-80
2023/05/24 03:06:05;;;;;;;16.92;9.38;;;;;;;14.37;100.00;94234.56;5083271;28;20112;-80
2023/05/24 03:08:50;;;;;;;13.32;8.93;;;;;;;14.25;100.00;94237.69;5081852;28;20086;-80
2023/05/24 03:11:18;;;;;;;18.00;9.60;;;;;;;14.35;100.00;94230.66;5060717;28;20311;-80
2023/05/24 03:13:43;;;;;;;15.20;8.25;;;;;;;14.53;100.00;94239.50;5061317;28;20051;-80
2023/05/24 03:18:54;;;;;;;20.02;9.35;;;;;;;14.53;100.00;94237.69;5077482;28;20465;-80
2023/05/24 03:21:38;;;;;;;13.65;9.40;;;;;;;14.55;100.00;94232.88;5078068;28;20035;-80
2023/05/24 03:24:04;;;;;;;13.93;9.05;;;;;;;14.63;100.00;94241.16;5078604;28;20028;-80
2023/05/24 03:26:30;;;;;;;17.27;9.07;;;;;;;14.60;100.00;94236.47;5077478;28;20032;-80
2023/05/24 03:28:55;;;;;;;17.08;9.18;;;;;;;14.36;100.00;94240.13;5078400;28;20029;-80
2023/05/24 03:31:22;;;;;;;16.02;9.43;;;;;;;14.51;100.00;94239.84;5076620;28;20035;-80
2023/05/24 03:36:35;;;;;;;16.60;9.45;;;;;;;14.68;100.00;94241.06;5077305;28;20031;-80
2023/05/24 03:39:20;;;;;;;15.73;9.70;;;;;;;14.84;100.00;94252.88;5078103;28;20025;-80
2023/05/24 03:41:45;;;;;;;15.40;9.35;;;;;;;14.75;100.00;94249.38;5076473;28;20028;-80
2023/05/24 03:44:12;;;;;;;18.17;9.15;;;;;;;14.74;100.00;94245.19;5060347;28;20169;-80
2023/05/24 03:46:37;;;;;;;16.00;9.20;;;;;;;14.77;100.00;94241.94;5076865;28;20474;-80
2023/05/24 03:49:02;;;;;;;16.08;8.90;;;;;;;14.81;100.00;94248.19;5076793;28;20038;-80
2023/05/24 03:51:31;;;;;;;16.75;9.65;;;;;;;14.69;100.00;94250.53;5076433;28;20050;-80
2023/05/24 03:53:57;;;;;;;16.90;8.75;;;;;;;14.70;100.00;94244.19;5077903;28;20032;-80
2023/05/24 03:56:23;;;;;;;12.07;8.40;;;;;;;14.78;100.00;94250.66;5076671;28;20400;-80
2023/05/24 04:01:34;;;;;;;14.23;9.88;;;;;;;14.74;100.00;94252.31;5076366;28;20519;-80
2023/05/24 04:04:36;;;;;;;14.25;8.65;;;;;;;15.03;100.00;94257.22;5077365;28;20174;-80
2023/05/24 04:07:02;;;;;;;13.00;7.53;;;;;;;15.16;100.00;94258.28;5076709;28;20025;-80
2023/05/24 04:09:27;;;;;;;18.48;8.52;;;;;;;15.36;100.00;94259.66;5076499;28;20111;-80
2023/05/24 04:14:37;;;;;;;13.10;7.93;;;;;;;15.59;100.00;94266.81;5076595;28;20082;-85
2023/05/24 04:20:06;;;;;;;12.38;7.18;;;;;;;15.76;100.00;94260.81;5076305;28;20460;-80
2023/05/24 04:22:31;;;;;;;14.57;7.38;;;;;;;15.54;100.00;94263.19;5075809;28;20400;-80
2023/05/24 04:27:41;;;;;;;12.05;7.68;;;;;;;15.79;100.00;94258.38;5086962;28;20105;-80
2023/05/24 04:30:08;;;;;;;14.93;7.72;;;;;;;15.54;100.00;94255.25;5095873;28;20032;-80
2023/05/24 04:32:33;;;;;;;18.63;7.72;;;;;;;15.43;100.00;94261.88;5079422;28;20420;-80
2023/05/24 04:35:01;;;;;;;14.73;8.20;;;;;;;15.61;100.00;94265.41;5079655;28;20032;-80
2023/05/24 04:37:28;;;;;;;15.55;8.32;;;;;;;15.38;100.00;94262.78;5096288;28;20038;-80
2023/05/24 04:39:53;;;;;;;21.67;9.50;;;;;;;15.11;100.00;94258.38;5097342;28;20024;-80
2023/05/24 04:42:38;;;;;;;14.88;8.95;;;;;;;15.07;100.00;94268.75;5095662;28;20059;-80
2023/05/24 04:45:03;;;;;;;13.30;8.48;;;;;;;15.21;100.00;94265.31;5075877;28;20024;-80
2023/05/24 04:47:29;;;;;;;15.93;8.55;;;;;;;15.33;100.00;94264.75;5075835;28;20066;-80
2023/05/24 04:49:54;;;;;;;16.52;8.70;;;;;;;15.63;100.00;94263.22;5076640;28;20029;-80
2023/05/24 04:52:20;;;;;;;14.65;8.80;;;;;;;15.72;100.00;94263.31;5078777;28;20031;-80
2023/05/24 04:54:45;;;;;;;16.90;7.95;;;;;;;15.89;100.00;94265.28;5092081;28;20043;-80
2023/05/24 04:57:10;;;;;;;12.45;8.80;;;;;;;15.99;100.00;94269.50;5076889;28;20059;-80
2023/05/24 04:59:36;;;;;;;13.68;8.27;;;;;;;15.91;100.00;94271.03;5058912;28;20127;-80
2023/05/24 05:02:01;;;;;;;12.43;8.20;;;;;;;16.13;100.00;94274.72;5074927;28;20348;-80
2023/05/24 05:07:30;;;;;;;11.15;7.93;;;;;;;16.29;100.00;94276.97;5076762;28;20169;-80
2023/05/24 05:10:14;;;;;;;14.63;8.75;;;;;;;16.35;100.00;94275.72;5076747;28;20430;-80
2023/05/24 05:15:24;;;;;;;16.85;8.25;;;;;;;16.25;100.00;94268.84;5076489;28;20043;-80
2023/05/24 05:18:08;;;;;;;13.35;8.90;;;;;;;16.22;100.00;94272.91;5090186;28;20437;-80
2023/05/24 05:20:34;;;;;;;13.60;8.77;;;;;;;16.59;100.00;94264.00;5095012;28;20031;-80
2023/05/24 05:23:38;;;;;;;12.55;8.68;;;;;;;16.76;100.00;94274.59;5096711;28;20090;-80
2023/05/24 05:26:05;;;;;;;16.20;8.25;;;;;;;16.60;100.00;94270.84;5097087;28;20056;-80
2023/05/24 05:28:30;;;;;;;15.13;8.82;;;;;;;16.95;100.00;94271.69;5095545;28;20026;-80
2023/05/24 05:30:56;;;;;;;12.20;8.30;;;;;;;17.14;100.00;94275.16;5096562;28;20122;-80
2023/05/24 05:33:21;;;;;;;13.23;7.97;;;;;;;17.03;100.00;94278.09;5096302;28;20028;-80
2023/05/24 05:36:05;;;;;;;13.65;9.15;;;;;;;17.29;100.00;94279.97;5095524;28;20036;-80
2023/05/24 05:38:31;;;;;;;11.25;8.27;;;;;;;17.38;100.00;94280.78;5096605;28;20039;-80
2023/05/24 05:40:56;;;;;;;15.80;9.15;;;;;;;17.44;100.00;94284.03;5094849;28;20440;-80
2023/05/24 05:43:59;;;;;;;14.82;7.47;;;;;;;17.91;100.00;94274.63;5095408;28;20085;-80
2023/05/24 05:46:44;;;;;;;15.63;9.07;;;;;;;17.75;100.00;94280.41;5095631;28;20027;-80
2023/05/24 05:49:11;;;;;;;12.45;8.25;;;;;;;18.02;100.00;94275.03;5093625;28;20028;-80
2023/05/24 05:51:37;;;;;;;24.77;9.45;;;;;;;17.87;100.00;94279.75;5074664;28;20024;-80
2023/05/24 05:54:03;;;;;;;13.52;8.07;;;;;;;17.41;100.00;94282.00;5075133;28;20031;-80
2023/05/24 05:56:48;;;;;;;12.25;8.45;;;;;;;17.99;100.00;94283.63;5082181;28;20027;-80
2023/05/24 05:59:16;;;;;;;14.73;9.10;;;;;;;18.35;100.00;94277.13;5074997;28;20030;-81
2023/05/24 06:04:27;;;;;;;11.75;7.90;;;;;;;18.64;100.00;94275.59;5075238;28;20043;-81
2023/05/24 06:06:52;;;;;;;16.90;7.85;;;;;;;18.82;100.00;94286.88;5076211;28;20028;-80
2023/05/24 06:09:18;;;;;;;13.40;7.70;;;;;;;18.89;100.00;94278.41;5081086;28;20341;-80
2023/05/24 06:11:43;;;;;;;11.02;8.13;;;;;;;19.07;100.00;94274.56;5078238;28;20032;-80
2023/05/24 06:14:18;;;;;;;17.67;9.38;;;;;;;18.69;100.00;94282.59;5095090;28;20028;-80
2023/05/24 06:16:44;;;;;;;10.48;7.75;;;;;;;19.07;100.00;94277.22;5095181;28;20032;-80
2023/05/24 06:19:10;;;;;;;14.70;8.07;;;;;;;19.34;100.00;94277.81;5096296;28;20110;-80
2023/05/24 06:21:36;;;;;;;14.90;7.57;;;;;;;19.39;100.00;94276.06;5096075;28;20028;-80
2023/05/24 06:24:02;;;;;;;16.80;8.10;;;;;;;19.51;100.00;94278.78;5094845;28;20036;-80
2023/05/24 06:26:28;;;;;;;12.07;8.38;;;;;;;19.39;100.00;94271.53;5095012;28;20328;-81
2023/05/24 06:28:54;;;;;;;16.00;7.78;;;;;;;19.72;100.00;94275.31;5097358;28;20073;-80
2023/05/24 06:31:20;;;;;;;14.35;7.50;;;;;;;19.78;100.00;94274.78;5098163;28;20035;-80
2023/05/24 06:33:45;;;;;;;14.77;8.63;;;;;;;19.69;100.00;94273.31;5081933;28;20028;-81
2023/05/24 06:36:10;;;;;;;13.20;7.53;;;;;;;19.96;100.00;94273.84;5098428;28;20030;-81
2023/05/24 06:38:36;;;;;;;11.32;7.38;;;;;;;20.14;100.00;94280.53;5098565;28;20028;-80
2023/05/24 06:41:01;;;;;;;12.80;8.15;;;;;;;20.30;100.00;94279.88;5098308;28;20024;-80
2023/05/24 06:43:27;;;;;;;12.98;7.80;;;;;;;20.31;100.00;94284.88;5098278;28;20032;-80
2023/05/24 06:45:52;;;;;;;11.30;7.65;;;;;;;20.29;100.00;94281.75;5098338;28;20028;-81
2023/05/24 06:48:18;;;;;;;20.55;8.25;;;;;;;20.19;100.00;94282.19;5098356;28;20432;-80
2023/05/24 06:51:21;;;;;;;10.30;7.18;;;;;;;20.34;100.00;94284.22;5098205;28;20028;-81
2023/05/24 06:53:46;;;;;;;16.75;6.97;;;;;;;20.12;100.00;94292.59;5099477;28;20341;-80
2023/05/24 06:56:12;;;;;;;14.65;7.05;;;;;;;20.12;100.00;94290.72;5098179;28;20032;-81
2023/05/24 06:58:37;;;;;;;15.65;8.63;;;;;;;19.82;100.00;94290.84;5099356;28;20032;-80
2023/05/24 07:01:03;;;;;;;14.65;7.05;;;;;;;20.32;100.00;94298.94;5097778;28;20031;-80
2023/05/24 07:03:48;;;;;;;13.88;7.40;;;;;;;20.54;100.00;94292.41;5098080;28;20035;-81
2023/05/24 07:06:14;;;;;;;13.98;7.32;;;;;;;20.69;100.00;94292.84;5099233;28;20035;-80
2023/05/24 07:08:43;;;;;;;11.32;7.28;;;;;;;20.71;100.00;94293.31;5081274;28;20035;-81
2023/05/24 07:11:08;;;;;;;17.35;7.30;;;;;;;20.84;100.00;94294.13;5098718;28;20189;-80
2023/05/24 07:16:17;;;;;;;;;;;;;;;20.88;100.00;94295.78;5099510;28;20039;-81
2023/05/24 07:19:01;;;;;;;12.93;7.70;;;;;;;20.88;100.00;94287.00;5097790;28;19908;-80
2023/05/24 07:21:27;;;;;;;10.32;7.40;;;;;;;21.16;100.00;94289.75;5098712;28;20028;-80
2023/05/24 07:24:11;;;;;;;12.02;7.05;;;;;;;21.40;100.00;94298.75;5097624;28;20479;-80
2023/05/24 07:26:37;;;;;;;21.75;10.00;;;;;;;21.28;100.00;94291.59;5097514;28;20123;-81
2023/05/24 07:29:02;;;;;;;14.43;8.40;;;;;;;21.59;100.00;94300.03;5097593;28;20114;-81
2023/05/24 07:31:30;;;;;;;14.80;7.97;;;;;;;21.71;100.00;94299.25;5097018;28;20055;-80
2023/05/24 07:33:55;;;;;;;15.85;8.13;;;;;;;21.53;100.00;94293.41;5097476;28;20060;-80
2023/05/24 07:36:21;;;;;;;13.73;8.27;;;;;;;21.53;100.00;94296.06;5097603;28;20071;-81
2023/05/24 07:38:46;;;;;;;15.38;8.63;;;;;;;21.67;100.00;94290.38;5097355;28;20028;-81
2023/05/24 07:44:15;;;;;;;11.20;7.07;;;;;;;21.64;100.00;94297.13;5097487;28;20039;-81
2023/05/24 07:46:40;;;;;;;11.63;7.80;;;;;;;21.68;100.00;94292.69;5097195;28;20106;-81
2023/05/24 07:49:06;;;;;;;13.43;8.45;;;;;;;22.20;100.00;94292.09;5098299;28;20060;-81
2023/05/24 07:51:31;;;;;;;10.15;6.82;;;;;;;21.93;100.00;94294.47;5097013;28;20028;-81
2023/05/24 07:53:57;;;;;;;14.32;6.50;;;;;;;22.17;100.00;94294.34;5080390;28;20126;-81
2023/05/24 07:56:40;;;;;;;13.55;7.50;;;;;;;22.18;100.00;94298.56;5098246;28;20035;-81
2023/05/24 07:59:07;;;;;;;;;;;;;;;22.76;100.00;94298.38;5098607;28;20027;-81
2023/05/24 08:01:51;;;;;;;12.57;7.07;;;;;;;22.71;100.00;94294.88;5096775;28;19908;-81
2023/05/24 08:04:17;;;;;;;10.73;7.15;;;;;;;22.83;100.00;94290.56;5098134;28;20093;-81
2023/05/24 08:06:42;;;;;;;13.95;6.93;;;;;;;22.59;100.00;94289.63;5096847;28;20036;-80
2023/05/24 08:09:07;;;;;;;11.57;6.68;;;;;;;22.74;100.00;94291.50;5096649;28;20039;-81
2023/05/24 08:11:33;;;;;;;10.93;6.53;;;;;;;22.75;100.00;94292.28;5097785;28;20433;-81
2023/05/24 08:13:58;;;;;;;12.30;6.78;;;;;;;22.91;100.00;94284.22;5079699;28;20032;-81
2023/05/24 08:16:24;;;;;;;11.38;6.50;;;;;;;22.89;100.00;94297.16;5096686;28;20360;-81
2023/05/24 08:18:49;;;;;;;17.48;7.25;;;;;;;22.83;100.00;94291.31;5096574;28;20038;-81
2023/05/24 08:21:15;;;;;;;11.15;6.55;;;;;;;22.94;92.59;94290.78;5097122;28;20408;-81
2023/05/24 08:23:40;;;;;;;10.48;7.15;;;;;;;23.04;100.00;94292.13;5097639;28;20028;-81
2023/05/24 08:29:09;;;;;;;15.38;7.18;;;;;;;23.07;100.00;94296.78;5096714;28;20042;-81
2023/05/24 08:31:35;;;;;;;10.02;6.68;;;;;;;23.03;100.00;94294.06;5095880;28;20114;-81
2023/05/24 08:34:01;;;;;;;11.70;6.78;;;;;;;22.87;100.00;94288.72;5097761;28;20036;-81
2023/05/24 08:36:26;;;;;;;9.70;6.57;;;;;;;23.08;97.63;94288.41;5097448;28;20023;-81
2023/05/24 08:38:52;;;;;;;11.00;6.30;;;;;;;23.40;98.95;94287.56;5096174;28;20050;-81
2023/05/24 08:41:17;;;;;;;13.55;6.82;;;;;;;23.56;84.94;94277.59;5096069;28;20318;-81
2023/05/24 08:43:43;;;;;;;10.85;6.72;;;;;;;23.20;100.00;94287.50;5096172;28;20067;-81
2023/05/24 08:46:10;;;;;;;14.18;6.70;;;;;;;23.57;98.69;94281.81;5096064;28;20032;-81
2023/05/24 08:48:45;;;;;;;10.55;6.05;;;;;;;23.47;87.16;94293.06;5097188;28;20024;-81
2023/05/24 08:51:14;;;;;;;10.68;6.63;;;;;;;23.35;100.00;94290.50;5078760;28;20437;-80
2023/05/24 08:53:40;;;;;;;13.23;6.60;;;;;;;23.60;99.83;94295.59;5094395;28;20032;-81
2023/05/24 08:56:09;;;;;;;14.82;6.82;;;;;;;23.25;100.00;94281.91;5094423;28;20031;-81
2023/05/24 08:58:36;;;;;;;13.52;6.55;;;;;;;23.25;97.04;94281.91;5094555;28;20475;-81
2023/05/24 09:01:01;;;;;;;13.90;7.28;;;;;;;23.47;100.00;94276.25;5093916;28;20363;-80
2023/05/24 09:03:27;;;;;;;11.30;6.68;;;;;;;23.73;92.87;94275.59;5095531;28;20116;-81
2023/05/24 09:06:12;;;;;;;12.15;6.15;;;;;;;23.91;84.66;94275.13;5095820;28;20032;-80
2023/05/24 09:08:57;;;;;;;16.30;6.38;;;;;;;23.99;81.71;94276.81;5095703;28;20058;-81
2023/05/24 09:14:27;;;;;;;18.88;6.53;;;;;;;23.64;98.45;94272.34;5095934;28;20085;-81
2023/05/24 09:16:52;;;;;;;8.77;6.38;;;;;;;23.57;76.75;94270.31;5078749;28;20020;-81
2023/05/24 09:19:18;;;;;;;11.02;5.93;;;;;;;23.93;80.97;94271.00;5095705;28;20050;-81
2023/05/24 09:21:44;;;;;;;12.40;6.47;;;;;;;24.13;80.09;94270.97;5095528;28;20030;-81
2023/05/24 09:24:10;;;;;;;16.00;5.93;;;;;;;24.07;73.74;94273.16;5095615;28;20059;-81
2023/05/24 09:26:35;;;;;;;9.23;5.97;;;;;;;24.14;79.71;94277.84;5095509;28;20093;-81
2023/05/24 09:29:21;;;;;;;11.05;5.47;;;;;;;24.35;62.59;94274.00;5095641;28;20028;-80
2023/05/24 09:31:47;;;;;;;11.10;6.10;;;;;;;24.16;72.73;94266.81;5095240;28;20395;-81
2023/05/24 09:34:14;;;;;;;9.15;5.93;;;;;;;24.01;64.05;94272.66;5086894;28;20033;-81
2023/05/24 09:36:41;;;;;;;13.75;6.30;;;;;;;24.03;64.01;94268.88;5071229;28;20038;-81
2023/05/24 09:39:08;;;;;;;16.60;7.03;;;;;;;24.03;77.83;94271.53;5077253;28;20097;-81
2023/05/24 09:41:56;;;;;;;10.23;6.15;;;;;;;23.88;76.48;94268.59;5074777;28;20029;-81
2023/05/24 09:44:41;;;;;;;13.73;6.90;;;;;;;24.15;84.22;94266.03;5075415;28;20353;-81
2023/05/24 09:47:07;;;;;;;8.73;5.95;;;;;;;24.24;74.59;94263.88;5075243;28;20032;-81
2023/05/24 09:49:35;;;;;;;11.10;5.70;;;;;;;24.36;69.03;94257.56;5075182;28;20115;-81
2023/05/24 09:52:01;;;;;;;11.02;5.53;;;;;;;24.06;57.34;94258.22;5074953;28;20024;-80
2023/05/24 09:54:46;;;;;;;9.75;5.25;;;;;;;24.13;60.61;94260.25;5076291;28;20090;-81
2023/05/24 09:57:15;;;;;;;8.20;5.32;;;;;;;24.14;62.47;94249.22;5076321;28;20028;-81
2023/05/24 09:59:41;;;;;;;12.65;6.28;;;;;;;24.49;76.08;94257.38;5075041;28;20028;-81
2023/05/24 10:02:11;;;;;;;9.02;5.72;;;;;;;24.37;69.60;94256.44;5076386;28;20032;-81
2023/05/24 10:04:39;;;;;;;8.50;5.30;;;;;;;24.37;63.33;94255.69;5078117;28;20114;-81
2023/05/24 10:07:08;;;;;;;9.98;5.38;;;;;;;24.78;65.50;94252.47;5078899;28;20043;-80
2023/05/24 10:09:35;;;;;;;10.73;5.30;;;;;;;25.14;62.66;94247.59;5078799;28;20039;-81
2023/05/24 10:12:05;;;;;;;11.27;5.57;;;;;;;25.15;57.61;94254.50;5079816;28;20155;-81
2023/05/24 10:14:35;;;;;;;8.57;5.43;;;;;;;25.15;55.28;94249.16;5077897;28;20036;-81
2023/05/24 10:17:26;;;;;;;12.93;5.03;;;;;;;25.17;73.67;94238.84;5078569;28;20066;-80
2023/05/24 10:19:52;;;;;;;9.15;5.32;;;;;;;24.73;59.71;94237.44;5079747;28;20036;-81
2023/05/24 10:22:21;;;;;;;10.90;6.07;;;;;;;24.63;60.89;94241.53;5078517;28;20029;-80
2023/05/24 10:24:49;;;;;;;10.93;5.90;;;;;;;25.41;68.97;94236.81;5078561;28;20492;-81
2023/05/24 10:27:19;;;;;;;11.38;7.03;;;;;;;25.38;73.31;94235.63;5078429;28;20028;-81
2023/05/24 10:30:08;;;;;;;10.90;6.93;;;;;;;25.16;73.35;94239.97;5078362;28;20122;-81
2023/05/24 10:32:35;;;;;;;10.82;6.97;;;;;;;25.05;72.79;94228.34;5048336;28;20044;-81
2023/05/24 10:35:02;;;;;;;13.90;7.03;;;;;;;25.19;87.89;94230.44;5078273;28;20032;-81
2023/05/24 10:40:31;;;;;;;19.00;7.97;;;;;;;25.25;99.29;94221.72;5077878;28;20039;-81
2023/05/24 10:43:15;;;;;;;17.42;7.75;;;;;;;25.61;83.28;94216.00;5078399;28;20032;-81
2023/05/24 10:45:40;;;;;;;11.70;7.57;;;;;;;25.20;80.60;94216.66;5079326;28;20508;-81
2023/05/24 10:48:12;;;;;;;14.23;7.40;;;;;;;25.88;86.49;94217.78;5078041;28;20051;-81
2023/05/24 10:50:56;;;;;;;14.07;7.70;;;;;;;25.95;79.56;94218.59;5079028;28;20032;-80
2023/05/24 10:53:22;;;;;;;16.60;7.80;;;;;;;25.55;94.33;94212.88;5077767;28;20326;-81
2023/05/24 10:56:08;;;;;;;11.60;7.63;;;;;;;25.87;82.22;94208.94;5077819;28;20090;-81
2023/05/24 10:58:59;;;;;;;21.52;6.88;;;;;;;25.27;79.36;94214.06;5078998;28;20029;-81
2023/05/24 11:01:43;;;;;;;20.05;7.25;;;;;;;25.75;77.96;94201.16;5078823;28;20028;-81
2023/05/24 11:04:10;;;;;;;12.90;8.00;;;;;;;24.98;68.74;94194.97;5077739;28;20446;-81
2023/05/24 11:06:57;;;;;;;12.68;7.90;;;;;;;25.32;84.43;94188.06;5078923;28;20029;-81
2023/05/24 11:10:05;;;;;;;14.02;8.30;;;;;;;24.19;86.58;94197.28;5077626;28;20024;-81
2023/05/24 11:12:33;;;;;;;14.63;9.00;;;;;;;23.62;89.92;94178.34;5077014;28;20032;-81
2023/05/24 11:15:01;;;;;;;13.73;8.57;;;;;;;23.44;100.00;94179.56;5078428;28;20028;-80
2023/05/24 11:17:27;;;;;;;14.27;9.38;;;;;;;23.81;97.78;94172.19;5077548;28;20024;-81
2023/05/24 11:19:53;;;;;;;16.98;9.05;;;;;;;24.20;100.00;94182.78;5077259;28;20039;-80
2023/05/24 11:22:40;;;;;;;13.73;9.27;;;;;;;23.97;95.41;94169.38;5077227;28;20064;-81
2023/05/24 11:25:08;;;;;;;18.63;10.00;;;;;;;23.90;100.00;94174.63;5077411;28;20043;-81
2023/05/24 11:27:34;;;;;;;16.35;8.77;;;;;;;24.07;100.00;94168.78;5087346;28;20024;-81
2023/05/24 11:29:59;;;;;;;14.10;9.02;;;;;;;24.42;89.24;94167.00;5090660;28;20044;-81
2023/05/24 11:32:25;;;;;;;12.35;8.20;;;;;;;24.94;78.89;94175.38;5088828;28;20081;-80
2023/05/24 11:34:51;;;;;;;17.25;10.70;;;;;;;24.60;87.75;94167.28;5098605;28;20030;-80
2023/05/24 11:37:16;;;;;;;17.08;8.98;;;;;;;25.09;81.62;94159.47;5097328;28;20031;-80
2023/05/24 11:40:01;;;;;;;14.40;8.95;;;;;;;24.66;82.36;94159.69;5097379;28;20326;-81
2023/05/24 11:42:27;;;;;;;22.35;9.32;;;;;;;24.74;82.00;94171.28;5097082;28;20028;-80
2023/05/24 11:44:52;;;;;;;14.20;8.40;;;;;;;25.08;79.35;94157.91;5097323;28;20165;-81
2023/05/24 11:50:22;;;;;;;;;;;;;;;25.92;76.32;94165.69;5098480;28;20027;-81
2023/05/24 11:52:48;;;;;;;14.20;8.02;;;;;;;25.98;72.77;94169.56;5098260;28;19908;-81
2023/05/24 11:55:15;;;;;;;16.48;9.38;;;;;;;25.60;76.09;94157.34;5097020;28;20028;-81
2023/05/24 11:57:44;;;;;;;13.57;9.20;;;;;;;26.64;70.39;94162.72;5077511;28;20456;-81
2023/05/24 12:00:15;;;;;;;12.93;9.00;;;;;;;25.95;68.42;94161.47;5076573;28;20051;-81
2023/05/24 12:05:25;;;;;;;16.80;9.07;;;;;;;25.92;65.91;94144.22;5076294;28;20039;-80
2023/05/24 12:08:04;;;;;;;10.60;7.70;;;;;;;26.70;68.04;94135.53;5076465;28;20437;-81
2023/05/24 12:10:50;;;;;;;9.80;6.68;;;;;;;27.41;68.54;94136.16;5075965;28;20361;-81
2023/05/24 12:13:23;;;;;;;12.45;8.02;;;;;;;26.00;66.04;94144.25;5076204;28;20032;-81
2023/05/24 12:15:55;;;;;;;12.23;7.00;;;;;;;25.88;74.21;94127.28;5075962;28;20032;-81
2023/05/24 12:21:10;;;;;;;17.20;9.70;;;;;;;24.65;86.16;94132.13;5075899;28;20031;-81
2023/05/24 12:26:43;;;;;;;16.88;9.88;;;;;;;23.79;100.00;94155.72;5076640;28;20027;-80
2023/05/24 12:29:10;;;;;;;13.48;9.48;;;;;;;22.45;100.00;94167.25;5059697;28;20086;-81
2023/05/24 12:31:55;;;;;;;12.05;5.63;;;;;;;21.57;92.45;94217.75;5076640;28;20032;-81
2023/05/24 12:34:21;;;;;;;14.82;6.00;;;;;;;21.12;100.00;94253.44;5076249;28;20031;-81
2023/05/24 12:36:47;;;;;;;12.07;6.63;;;;;;;20.83;100.00;94303.22;5075851;28;20028;-81
2023/05/24 12:39:36;;;;;;;19.90;7.18;;;;;;;19.81;100.00;94334.50;5076015;28;20025;-81
2023/05/24 12:42:02;;;;;;;7.53;4.60;;;;;;;15.84;100.00;94342.00;5060190;28;20434;-81
2023/05/24 12:44:34;;;;;;;13.20;7.75;;;;;;;14.87;100.00;94369.41;5059219;28;20496;-81
2023/05/24 12:47:01;;;;;;;43.35;5.93;;;;;;;14.60;100.00;94371.75;5075741;28;20131;-81
2023/05/24 12:49:26;;;;;;;33.47;6.93;;;;;;;14.63;100.00;94373.00;5076890;28;20028;-82
2023/05/24 12:51:53;;;;;;;31.42;9.95;;;;;;;15.64;100.00;94361.75;5075295;28;20025;-82
2023/05/24 14:37:40;;;;;;;16.58;8.23;;;;;;;19.45;100.00;94198.50;5110338;27;20406;-80
2023/05/24 14:40:06;;;;;;;10.15;6.63;;;;;;;20.67;100.00;94196.59;5092897;28;20039;-80
2023/05/24 14:42:50;;;;;;;15.43;8.73;;;;;;;20.74;100.00;94200.25;5092823;28;20024;-80